Time;durP1;ratioP1;P1;durP2;ratioP2;P2;SDS_P1;SDS_P2;PMS_P1;PMS_P2;Temp;Humidity;BMP_temperature;BMP_pressure;BME280_temperature;BME280_humidity;BME280_pressure;Samples;Min_cycle;Max_cycle;Signal;HPM_P1;HPM_P2
2023/05/23 00:02:00;;;;;;;9.40;7.70;;;;;;;13.12;61.17;98443.16;436287;1251;98827;-42
2023/05/23 00:12:05;;;;;;;12.10;7.20;;;;;;;13.12;60.98;98431.90;436436;1251;110784;-42
2023/05/23 00:22:09;;;;;;;11.70;7.90;;;;;;;13.15;61.05;98424.67;436079;1251;107480;-42
2023/05/23 00:32:27;;;;;;;12.20;8.00;;;;;;;13.17;61.11;98413.55;436494;1248;99256;-43
2023/05/23 00:52:35;;;;;;;11.90;7.80;;;;;;;12.82;61.07;98418.59;436297;1261;98000;-43
2023/05/23 01:02:40;;;;;;;8.80;7.30;;;;;;;12.62;61.34;98416.98;436435;1247;112444;-43
2023/05/23 01:12:45;;;;;;;16.30;9.60;;;;;;;12.10;61.28;98411.29;436329;1251;107716;-43
2023/05/23 01:22:59;;;;;;;12.60;9.80;;;;;;;11.42;61.92;98416.27;436391;1251;99240;-43
2023/05/23 01:33:04;;;;;;;15.70;10.10;;;;;;;10.99;62.50;98417.02;436951;1248;109340;-41
2023/05/23 01:43:08;;;;;;;15.90;10.30;;;;;;;10.51;63.10;98402.64;436231;1248;97988;-43
2023/05/23 01:53:13;;;;;;;13.80;10.00;;;;;;;10.07;63.71;98393.56;436217;1253;110894;-44
2023/05/23 02:03:17;;;;;;;22.40;10.80;;;;;;;9.69;64.22;98395.83;436182;1253;107205;-42
2023/05/23 02:13:22;;;;;;;20.50;11.50;;;;;;;9.49;64.66;98393.99;436074;1264;99334;-43
2023/05/23 02:23:26;;;;;;;25.00;11.50;;;;;;;9.36;65.25;98396.80;436143;1254;109709;-43
2023/05/23 02:33:29;;;;;;;14.40;10.20;;;;;;;9.19;65.61;98392.11;436127;1254;98738;-42
2023/05/23 02:43:34;;;;;;;13.90;9.90;;;;;;;9.09;66.13;98392.02;435911;1252;111937;-43
2023/05/23 02:53:38;;;;;;;16.00;10.00;;;;;;;9.02;66.24;98383.57;436072;1254;108479;-44
2023/05/23 03:03:42;;;;;;;17.70;10.60;;;;;;;9.04;66.52;98372.06;435962;1254;99221;-41
2023/05/23 03:13:46;;;;;;;21.10;10.50;;;;;;;9.32;66.77;98369.05;436008;1255;109375;-42
2023/05/23 03:23:49;;;;;;;20.90;11.60;;;;;;;9.57;66.57;98357.66;436060;1249;99240;-40
2023/05/23 03:33:53;;;;;;;23.40;12.10;;;;;;;11.04;66.38;98345.80;436101;1254;111881;-43
2023/05/23 03:43:57;;;;;;;24.70;12.20;;;;;;;13.09;65.06;98333.73;435780;1255;471406;-40
2023/05/23 03:54:01;;;;;;;22.30;12.00;;;;;;;14.86;63.77;98322.19;436112;1248;99193;-43
2023/05/23 04:04:05;;;;;;;10.50;7.80;;;;;;;16.51;62.51;98313.88;436116;1252;108268;-42
2023/05/23 04:14:09;;;;;;;11.60;6.60;;;;;;;18.26;60.81;98309.05;436058;1251;98798;-42
2023/05/23 04:24:14;;;;;;;8.60;5.80;;;;;;;19.68;58.97;98316.54;436037;1251;112696;-43
2023/05/23 04:34:20;;;;;;;8.90;6.10;;;;;;;20.35;56.73;98311.19;436095;1247;107570;-42
2023/05/23 04:54:28;;;;;;;10.40;6.90;;;;;;;20.49;53.75;98308.69;436142;1248;108511;-43
2023/05/23 05:04:36;;;;;;;7.50;6.50;;;;;;;20.25;52.45;98303.50;436063;1248;97932;-43
2023/05/23 05:14:39;;;;;;;10.80;7.10;;;;;;;20.18;52.13;98298.05;436339;1254;111066;-41
2023/05/23 05:24:43;;;;;;;10.20;7.10;;;;;;;20.25;51.29;98290.17;436078;1247;109196;-41
2023/05/23 05:34:47;;;;;;;10.50;9.10;;;;;;;20.44;50.92;98284.79;436001;1248;98082;-42
2023/05/23 05:44:52;;;;;;;9.50;7.90;;;;;;;20.39;50.28;98286.29;436089;1248;107322;-41
2023/05/23 06:05:00;;;;;;;16.90;8.20;;;;;;;20.72;49.62;98276.90;436162;1248;111677;-42
2023/05/23 06:15:02;;;;;;;11.80;7.30;;;;;;;21.08;48.79;98270.14;435783;1253;108634;-41
2023/05/23 06:25:08;;;;;;;14.50;7.30;;;;;;;21.61;48.40;98262.49;436121;1248;100392;-42
2023/05/23 06:35:11;;;;;;;11.50;7.40;;;;;;;21.81;46.82;98256.90;436003;1248;108098;-42
2023/05/23 06:45:26;;;;;;;16.60;8.30;;;;;;;22.20;46.47;98253.76;436088;1253;99215;-42
2023/05/23 06:55:32;;;;;;;11.80;6.40;;;;;;;22.58;46.05;98249.27;436063;1253;110585;-42
2023/05/23 07:05:36;;;;;;;14.80;6.70;;;;;;;22.20;44.36;98241.84;435997;1253;108092;-42
2023/05/23 07:15:44;;;;;;;10.60;7.20;;;;;;;22.19;44.77;98238.79;436049;1251;99236;-43
2023/05/23 07:25:48;;;;;;;8.50;6.90;;;;;;;22.49;43.80;98236.02;435862;1253;108559;-41
2023/05/23 07:36:05;;;;;;;8.50;5.80;;;;;;;22.40;43.51;98228.86;436010;1250;99235;-41
2023/05/23 07:46:09;;;;;;;11.00;5.50;;;;;;;22.33;42.96;98220.02;436165;1253;111560;-42
2023/05/23 07:56:13;;;;;;;8.80;5.70;;;;;;;22.38;42.48;98219.19;436156;1248;108272;-42
2023/05/23 08:06:21;;;;;;;10.10;6.20;;;;;;;22.32;41.41;98216.34;436087;1251;98018;-41
2023/05/23 08:16:23;;;;;;;;;;;;;;;22.45;40.68;98214.46;436036;1253;110049;-43
2023/05/23 08:26:33;;;;;;;11.30;4.60;;;;;;;22.28;39.58;98212.40;436256;1248;99236;-43
2023/05/23 08:36:38;;;;;;;8.50;4.40;;;;;;;22.65;38.68;98203.23;436193;1253;112693;-42
2023/05/23 08:46:43;;;;;;;12.10;6.30;;;;;;;23.03;38.43;98201.81;436102;1250;109204;-41
2023/05/23 09:06:54;;;;;;;5.00;3.90;;;;;;;23.13;37.01;98199.08;436352;1248;107985;-45
2023/05/23 09:17:00;;;;;;;10.70;3.70;;;;;;;23.24;36.75;98187.97;436249;1253;99220;-42
2023/05/23 09:27:08;;;;;;;13.60;4.80;;;;;;;23.09;36.45;98193.38;436045;1271;110982;-42
2023/05/23 09:47:20;;;;;;;11.00;4.40;;;;;;;24.05;36.79;98176.77;436085;1247;99214;-42
2023/05/23 09:57:25;;;;;;;5.90;3.80;;;;;;;24.17;36.02;98173.21;436025;1253;109341;-42
2023/05/23 10:07:30;;;;;;;8.00;4.60;;;;;;;23.80;36.66;98168.73;436125;1247;98021;-42
2023/05/23 10:17:43;;;;;;;7.00;4.30;;;;;;;24.13;36.99;98160.78;436065;1253;111812;-43
2023/05/23 10:27:52;;;;;;;5.40;4.20;;;;;;;24.00;36.86;98146.23;435907;1252;109072;-41
2023/05/23 10:38:00;;;;;;;7.10;4.40;;;;;;;24.16;36.54;98143.98;436160;1253;99269;-41
2023/05/23 10:48:03;;;;;;;;;;;;;;;24.36;35.66;98140.25;436093;1253;108662;-42
2023/05/23 10:58:09;;;;;;;6.90;4.40;;;;;;;24.63;35.48;98145.92;436147;1248;98831;-41
2023/05/23 11:08:15;;;;;;;9.00;4.40;;;;;;;24.29;35.20;98141.06;436141;1252;110466;-44
2023/05/23 11:18:21;;;;;;;9.40;4.00;;;;;;;24.33;35.49;98137.98;436062;1250;107406;-41
2023/05/23 11:28:25;;;;;;;4.30;3.50;;;;;;;24.31;35.22;98137.29;436126;1249;99313;-41
2023/05/23 11:38:30;;;;;;;7.10;3.60;;;;;;;24.44;35.57;98136.24;436126;1254;108091;-41
2023/05/23 11:48:34;;;;;;;8.80;4.30;;;;;;;24.45;35.37;98133.51;436274;1250;97985;-42
2023/05/23 11:58:38;;;;;;;9.20;4.60;;;;;;;24.55;35.23;98118.74;435973;1253;111338;-43
2023/05/23 12:08:42;;;;;;;6.50;3.80;;;;;;;24.75;35.00;98114.04;435871;1252;107734;-41
2023/05/23 12:18:48;;;;;;;8.10;3.90;;;;;;;25.00;35.12;98111.05;435761;1253;99234;-43
2023/05/23 12:28:52;;;;;;;6.30;3.90;;;;;;;25.26;34.83;98104.69;435736;1250;109209;-41
2023/05/23 12:39:02;;;;;;;7.00;4.10;;;;;;;25.27;34.49;98099.92;436024;1253;98833;-44
2023/05/23 12:49:07;;;;;;;7.70;4.10;;;;;;;25.19;34.80;98092.08;436122;1253;112410;-41
2023/05/23 12:59:11;;;;;;;6.70;4.30;;;;;;;25.00;35.20;98079.13;435957;1248;110707;-41
2023/05/23 13:09:15;;;;;;;7.40;4.40;;;;;;;24.57;35.26;98069.04;436253;1253;99589;-43
2023/05/23 13:19:19;;;;;;;5.50;3.30;;;;;;;24.41;36.05;98063.25;436115;1253;108264;-42
2023/05/23 13:29:23;;;;;;;7.70;5.40;;;;;;;24.31;36.55;98080.92;436200;1261;99209;-42
2023/05/23 13:39:27;;;;;;;15.70;6.50;;;;;;;24.22;38.23;98091.66;436276;1248;112919;-41
2023/05/23 13:49:31;;;;;;;11.70;6.90;;;;;;;24.17;40.02;98094.41;436239;1248;107843;-41
2023/05/23 13:59:35;;;;;;;16.50;7.20;;;;;;;24.09;40.66;98095.10;436005;1252;101329;-44
2023/05/23 14:09:39;;;;;;;11.10;6.90;;;;;;;23.95;41.40;98095.71;435984;1248;109430;-42
2023/05/23 14:19:47;;;;;;;14.80;6.30;;;;;;;23.72;41.95;98101.84;435931;1253;99362;-42
2023/05/23 14:29:51;;;;;;;14.20;6.50;;;;;;;23.28;42.91;98111.37;435957;1253;111854;-43
2023/05/23 14:39:55;;;;;;;7.60;6.50;;;;;;;22.80;43.85;98119.20;435915;1251;108170;-42
2023/05/23 14:49:59;;;;;;;10.50;8.60;;;;;;;22.44;45.48;98112.35;435928;1249;98816;-42
2023/05/23 15:10:07;;;;;;;20.70;7.50;;;;;;;22.67;47.20;98096.55;436029;1251;98008;-41
2023/05/23 15:20:11;;;;;;;18.80;15.30;;;;;;;22.69;47.87;98097.61;435983;1250;111206;-41
2023/05/23 15:30:19;;;;;;;10.50;7.20;;;;;;;22.84;48.02;98094.59;435865;1250;108083;-42
2023/05/23 15:40:22;;;;;;;;;;;;;;;22.53;48.79;98098.95;435907;1252;99347;-42
2023/05/23 15:50:30;;;;;;;17.90;10.40;;;;;;;21.96;49.71;98099.47;435544;1253;315150;-43
2023/05/23 16:00:34;;;;;;;19.30;10.90;;;;;;;21.32;50.80;98089.48;435637;1253;99246;-46
2023/05/23 16:10:38;;;;;;;18.00;10.80;;;;;;;20.91;51.62;98074.00;435792;1253;111971;-42
2023/05/23 16:20:41;;;;;;;16.40;10.80;;;;;;;20.63;52.46;98076.12;435594;1254;109371;-41
2023/05/23 16:30:46;;;;;;;12.80;9.70;;;;;;;20.47;53.20;98088.95;435822;1250;99343;-42
2023/05/23 16:40:49;;;;;;;18.70;10.10;;;;;;;20.36;53.78;98095.17;436100;1253;108687;-42
2023/05/23 16:50:59;;;;;;;10.40;8.30;;;;;;;20.20;54.15;98096.40;436227;1253;99248;-42
2023/05/23 17:01:03;;;;;;;14.90;8.90;;;;;;;20.06;54.35;98102.05;436297;1251;111571;-45
2023/05/23 17:11:07;;;;;;;16.90;9.60;;;;;;;19.98;54.37;98101.54;436371;1251;107219;-42
2023/05/23 17:21:13;;;;;;;10.90;9.20;;;;;;;19.83;54.46;98105.09;436316;1251;99597;-44
2023/05/23 17:31:17;;;;;;;14.70;8.20;;;;;;;19.70;54.54;98107.38;436118;1250;107235;-43
2023/05/23 17:51:29;;;;;;;13.80;7.80;;;;;;;19.35;55.05;98115.58;436371;1248;112037;-43
2023/05/23 18:01:34;;;;;;;10.40;8.00;;;;;;;19.18;55.39;98123.10;436276;1253;107898;-42
2023/05/23 18:11:39;;;;;;;12.40;8.30;;;;;;;19.05;55.71;98135.19;436169;1252;97982;-43
2023/05/23 18:21:42;;;;;;;14.60;10.80;;;;;;;18.96;55.93;98131.23;436228;1251;107383;-43
2023/05/23 18:31:46;;;;;;;19.20;11.20;;;;;;;18.85;56.19;98139.61;436055;1253;99211;-43
2023/05/23 18:41:50;;;;;;;15.40;9.30;;;;;;;18.73;56.58;98154.04;435873;1253;111874;-43
2023/05/23 18:51:53;;;;;;;19.20;11.20;;;;;;;18.63;57.04;98175.06;435781;1261;108156;-43
2023/05/23 19:12:02;;;;;;;20.60;12.40;;;;;;;18.32;58.03;98180.84;435971;1253;109125;-43
2023/05/23 19:22:06;;;;;;;24.80;15.00;;;;;;;18.05;58.42;98181.80;435930;1253;99276;-43
2023/05/23 19:32:14;;;;;;;18.60;12.80;;;;;;;17.84;59.02;98182.73;435829;1250;111902;-42
2023/05/23 19:42:22;;;;;;;16.60;11.10;;;;;;;17.74;59.46;98187.73;435771;1250;107256;-43
2023/05/23 19:52:26;;;;;;;15.80;10.90;;;;;;;17.65;60.09;98189.48;436026;1253;97987;-43
2023/05/23 20:02:30;;;;;;;25.10;14.60;;;;;;;17.52;60.72;98190.05;435872;1254;108316;-42
2023/05/23 20:12:34;;;;;;;21.10;13.20;;;;;;;17.40;61.15;98193.98;435795;1261;99237;-41
2023/05/23 20:22:37;;;;;;;18.40;11.80;;;;;;;17.43;61.90;98201.01;435918;1253;111462;-41
2023/05/23 20:32:44;;;;;;;16.80;11.70;;;;;;;17.50;62.43;98203.98;435970;1253;108464;-41
2023/05/23 20:52:53;;;;;;;15.40;10.90;;;;;;;17.44;63.32;98208.95;436150;1247;107623;-41
2023/05/23 21:02:57;;;;;;;16.30;10.60;;;;;;;17.47;63.58;98215.23;436154;1253;99349;-42
2023/05/23 21:13:01;;;;;;;14.60;11.40;;;;;;;17.50;63.95;98225.31;436013;1253;110855;-41
2023/05/23 21:23:05;;;;;;;19.30;13.20;;;;;;;17.50;64.44;98230.44;436100;1254;108375;-41
2023/05/23 21:33:08;;;;;;;17.50;14.80;;;;;;;17.42;64.82;98235.75;436380;1253;97958;-43
2023/05/23 21:43:13;;;;;;;17.00;13.20;;;;;;;17.31;65.28;98244.02;436126;1253;108607;-43
2023/05/23 21:53:17;;;;;;;19.30;13.80;;;;;;;17.31;65.49;98251.86;436195;1254;99221;-42
2023/05/23 22:03:21;;;;;;;16.60;11.60;;;;;;;17.28;65.89;98250.02;436269;1253;111935;-41
2023/05/23 22:13:27;;;;;;;16.00;11.50;;;;;;;17.21;66.02;98253.27;436185;1253;108437;-44
2023/05/23 22:23:30;;;;;;;15.50;12.80;;;;;;;17.09;66.17;98250.24;436196;1251;99678;-42
2023/05/23 22:33:34;;;;;;;18.90;11.90;;;;;;;16.91;66.38;98257.92;436089;1253;108780;-43
2023/05/23 22:43:37;;;;;;;13.80;11.30;;;;;;;16.91;66.91;98262.41;435950;1253;99355;-42
2023/05/23 22:53:42;;;;;;;22.20;12.50;;;;;;;16.92;67.10;98256.86;436023;1261;111862;-42
2023/05/23 23:04:00;;;;;;;18.10;13.10;;;;;;;16.86;67.53;98262.84;436023;1254;110098;-42
2023/05/23 23:14:03;;;;;;;18.60;14.00;;;;;;;16.73;67.68;98263.34;436156;1253;99244;-41
2023/05/23 23:24:06;;;;;;;17.80;12.80;;;;;;;16.61;67.73;98256.69;436141;1251;107594;-42
2023/05/23 23:34:10;;;;;;;16.00;13.30;;;;;;;16.50;67.94;98251.63;436095;1253;99244;-42
2023/05/23 23:44:14;;;;;;;17.50;13.00;;;;;;;16.45;68.08;98248.23;435958;1254;111820;-42
2023/05/23 23:54:21;;;;;;;17.00;13.30;;;;;;;16.37;68.21;98249.30;435972;1251;108153;-43
